sensor_id;sensor_type;location;lat;lon;timestamp;pressure;altitude;pressure_sealevel;temperature;humidity
14612;BME280;7392;52.078;11.650;2022-12-26T00:00:37;100205.56;;;8.61;100.00
14612;BME280;7392;52.078;11.650;2022-12-26T00:03:04;100195.88;;;8.60;100.00
14612;BME280;7392;52.078;11.650;2022-12-26T00:05:34;100205.56;;;8.59;100.00
14612;BME280;7392;52.078;11.650;2022-12-26T00:08:04;100209.97;;;8.59;100.00
14612;BME280;7392;52.078;11.650;2022-12-26T00:10:33;100211.75;;;8.58;100.00
14612;BME280;7392;52.078;11.650;2022-12-26T00:13:00;100201.16;;;8.57;100.00
14612;BME280;7392;52.078;11.650;2022-12-26T00:15:48;100200.28;;;8.56;100.00
14612;BME280;7392;52.078;11.650;2022-12-26T00:18:16;100202.06;;;8.56;100.00
14612;BME280;7392;52.078;11.650;2022-12-26T00:20:43;100186.19;;;8.53;100.00
14612;BME280;7392;52.078;11.650;2022-12-26T00:23:12;100189.69;;;8.52;100.00
14612;BME280;7392;52.078;11.650;2022-12-26T00:25:40;100179.97;;;8.52;100.00
14612;BME280;7392;52.078;11.650;2022-12-26T00:28:07;100174.72;;;8.51;100.00
14612;BME280;7392;52.078;11.650;2022-12-26T00:30:36;100185.31;;;8.49;100.00
14612;BME280;7392;52.078;11.650;2022-12-26T00:33:03;100175.59;;;8.47;100.00
14612;BME280;7392;52.078;11.650;2022-12-26T00:35:31;100163.28;;;8.44;100.00
14612;BME280;7392;52.078;11.650;2022-12-26T00:37:58;100158.84;;;8.43;100.00
14612;BME280;7392;52.078;11.650;2022-12-26T00:40:28;100167.63;;;8.42;100.00
14612;BME280;7392;52.078;11.650;2022-12-26T00:42:55;100176.47;;;8.41;100.00
14612;BME280;7392;52.078;11.650;2022-12-26T00:45:23;100182.63;;;8.40;100.00
14612;BME280;7392;52.078;11.650;2022-12-26T00:47:51;100179.97;;;8.38;100.00
14612;BME280;7392;52.078;11.650;2022-12-26T00:50:18;100187.97;;;8.35;100.00
14612;BME280;7392;52.078;11.650;2022-12-26T00:52:46;100195.00;;;8.33;100.00
14612;BME280;7392;52.078;11.650;2022-12-26T00:55:13;100195.00;;;8.32;100.00
14612;BME280;7392;52.078;11.650;2022-12-26T00:57:42;100194.13;;;8.30;100.00
14612;BME280;7392;52.078;11.650;2022-12-26T01:00:11;100188.81;;;8.28;100.00
14612;BME280;7392;52.078;11.650;2022-12-26T01:02:39;100202.97;;;8.27;100.00
14612;BME280;7392;52.078;11.650;2022-12-26T01:05:09;100198.53;;;8.24;100.00
14612;BME280;7392;52.078;11.650;2022-12-26T01:07:38;100195.03;;;8.24;100.00
14612;BME280;7392;52.078;11.650;2022-12-26T01:10:26;100199.44;;;8.22;100.00
14612;BME280;7392;52.078;11.650;2022-12-26T01:12:55;100189.72;;;8.21;100.00
14612;BME280;7392;52.078;11.650;2022-12-26T01:15:23;100193.25;;;8.21;100.00
14612;BME280;7392;52.078;11.650;2022-12-26T01:17:50;100195.03;;;8.21;100.00
14612;BME280;7392;52.078;11.650;2022-12-26T01:20:18;100202.94;;;8.21;100.00
14612;BME280;7392;52.078;11.650;2022-12-26T01:22:46;100199.44;;;8.22;100.00
14612;BME280;7392;52.078;11.650;2022-12-26T01:25:13;100199.44;;;8.22;100.00
14612;BME280;7392;52.078;11.650;2022-12-26T01:27:41;100209.13;;;8.23;100.00
14612;BME280;7392;52.078;11.650;2022-12-26T01:30:10;100208.25;;;8.26;100.00
14612;BME280;7392;52.078;11.650;2022-12-26T01:32:38;100210.03;;;8.25;100.00
14612;BME280;7392;52.078;11.650;2022-12-26T01:35:06;100210.91;;;8.26;100.00
14612;BME280;7392;52.078;11.650;2022-12-26T01:37:33;100209.13;;;8.26;100.00
14612;BME280;7392;52.078;11.650;2022-12-26T01:40:01;100205.59;;;8.27;100.00
14612;BME280;7392;52.078;11.650;2022-12-26T01:42:35;100191.47;;;8.28;100.00
14612;BME280;7392;52.078;11.650;2022-12-26T01:45:06;100196.75;;;8.30;100.00
14612;BME280;7392;52.078;11.650;2022-12-26T01:47:48;100195.03;;;8.30;100.00
14612;BME280;7392;52.078;11.650;2022-12-26T01:50:27;100196.75;;;8.31;100.00
14612;BME280;7392;52.078;11.650;2022-12-26T01:52:58;100185.31;;;8.31;100.00
14612;BME280;7392;52.078;11.650;2022-12-26T01:55:29;100192.34;;;8.32;100.00
14612;BME280;7392;52.078;11.650;2022-12-26T01:58:02;100200.28;;;8.32;100.00
14612;BME280;7392;52.078;11.650;2022-12-26T02:00:33;100197.63;;;8.32;100.00
14612;BME280;7392;52.078;11.650;2022-12-26T02:03:05;100191.47;;;8.31;100.00
14612;BME280;7392;52.078;11.650;2022-12-26T02:05:54;100192.38;;;8.30;100.00
14612;BME280;7392;52.078;11.650;2022-12-26T02:08:26;100184.44;;;8.30;100.00
14612;BME280;7392;52.078;11.650;2022-12-26T02:10:58;100181.78;;;8.30;100.00
14612;BME280;7392;52.078;11.650;2022-12-26T02:13:27;100165.91;;;8.30;100.00
14612;BME280;7392;52.078;11.650;2022-12-26T02:15:56;100175.59;;;8.28;100.00
14612;BME280;7392;52.078;11.650;2022-12-26T02:18:25;100167.66;;;8.28;100.00
14612;BME280;7392;52.078;11.650;2022-12-26T02:21:00;100178.25;;;8.27;100.00
14612;BME280;7392;52.078;11.650;2022-12-26T02:27:02;100209.13;;;8.24;100.00
14612;BME280;7392;52.078;11.650;2022-12-26T02:29:50;100205.59;;;8.24;100.00
14612;BME280;7392;52.078;11.650;2022-12-26T02:32:32;100202.09;;;8.20;100.00
14612;BME280;7392;52.078;11.650;2022-12-26T02:35:09;100207.38;;;8.20;100.00
14612;BME280;7392;52.078;11.650;2022-12-26T02:37:49;100192.38;;;8.18;100.00
14612;BME280;7392;52.078;11.650;2022-12-26T02:40:30;100205.63;;;8.15;100.00
14612;BME280;7392;52.078;11.650;2022-12-26T02:43:05;100212.66;;;8.13;100.00
14612;BME280;7392;52.078;11.650;2022-12-26T02:45:42;100206.50;;;8.11;100.00
14612;BME280;7392;52.078;11.650;2022-12-26T02:48:35;100193.25;;;8.09;100.00
14612;BME280;7392;52.078;11.650;2022-12-26T02:51:12;100170.34;;;8.08;100.00
14612;BME280;7392;52.078;11.650;2022-12-26T02:54:09;100178.28;;;8.05;100.00
14612;BME280;7392;52.078;11.650;2022-12-26T02:57:17;100201.22;;;8.00;100.00
14612;BME280;7392;52.078;11.650;2022-12-26T03:00:06;100197.69;;;7.96;100.00
14612;BME280;7392;52.078;11.650;2022-12-26T03:02:54;100195.91;;;7.95;100.00
14612;BME280;7392;52.078;11.650;2022-12-26T03:05:47;100195.03;;;7.93;100.00
14612;BME280;7392;52.078;11.650;2022-12-26T03:08:36;100186.22;;;7.91;100.00
14612;BME280;7392;52.078;11.650;2022-12-26T03:11:25;100190.63;;;7.86;100.00
14612;BME280;7392;52.078;11.650;2022-12-26T03:14:14;100205.63;;;7.82;100.00
14612;BME280;7392;52.078;11.650;2022-12-26T03:16:47;100203.84;;;7.80;100.00
14612;BME280;7392;52.078;11.650;2022-12-26T03:19:35;100214.41;;;7.78;100.00
14612;BME280;7392;52.078;11.650;2022-12-26T03:22:27;100214.44;;;7.81;100.00
14612;BME280;7392;52.078;11.650;2022-12-26T03:25:02;100211.78;;;7.86;100.00
14612;BME280;7392;52.078;11.650;2022-12-26T03:27:48;100220.63;;;7.93;100.00
14612;BME280;7392;52.078;11.650;2022-12-26T03:30:16;100212.66;;;7.99;100.00
14612;BME280;7392;52.078;11.650;2022-12-26T03:33:01;100207.38;;;8.00;100.00
14612;BME280;7392;52.078;11.650;2022-12-26T03:35:32;100210.03;;;8.03;100.00
14612;BME280;7392;52.078;11.650;2022-12-26T03:38:05;100216.19;;;8.07;100.00
14612;BME280;7392;52.078;11.650;2022-12-26T03:40:50;100232.06;;;8.10;100.00
14612;BME280;7392;52.078;11.650;2022-12-26T03:43:54;100240.00;;;8.09;100.00
14612;BME280;7392;52.078;11.650;2022-12-26T03:46:56;100231.16;;;8.11;100.00
14612;BME280;7392;52.078;11.650;2022-12-26T03:49:46;100232.94;;;8.17;100.00
14612;BME280;7392;52.078;11.650;2022-12-26T03:52:38;100225.91;;;8.22;100.00
14612;BME280;7392;52.078;11.650;2022-12-26T03:55:33;100225.91;;;8.23;100.00
14612;BME280;7392;52.078;11.650;2022-12-26T03:58:25;100237.34;;;8.24;100.00
14612;BME280;7392;52.078;11.650;2022-12-26T04:01:14;100232.94;;;8.21;100.00
14612;BME280;7392;52.078;11.650;2022-12-26T04:04:01;100252.34;;;8.20;100.00
14612;BME280;7392;52.078;11.650;2022-12-26T04:06:51;100265.56;;;8.17;100.00
14612;BME280;7392;52.078;11.650;2022-12-26T04:09:42;100262.06;;;8.17;100.00
14612;BME280;7392;52.078;11.650;2022-12-26T04:12:31;100252.34;;;8.19;100.00
14612;BME280;7392;52.078;11.650;2022-12-26T04:15:27;100240.88;;;8.23;100.00
14612;BME280;7392;52.078;11.650;2022-12-26T04:18:21;100253.22;;;8.29;100.00
14612;BME280;7392;52.078;11.650;2022-12-26T04:21:13;100253.22;;;8.30;100.00
14612;BME280;7392;52.078;11.650;2022-12-26T04:23:59;100253.19;;;8.33;100.00
14612;BME280;7392;52.078;11.650;2022-12-26T04:26:50;100259.41;;;8.34;100.00
14612;BME280;7392;52.078;11.650;2022-12-26T04:29:39;100253.19;;;8.32;100.00
14612;BME280;7392;52.078;11.650;2022-12-26T04:32:30;100269.97;;;8.31;100.00
14612;BME280;7392;52.078;11.650;2022-12-26T04:35:20;100262.03;;;8.31;100.00
14612;BME280;7392;52.078;11.650;2022-12-26T04:38:10;100264.69;;;8.29;100.00
14612;BME280;7392;52.078;11.650;2022-12-26T04:41:00;100258.53;;;8.30;100.00
14612;BME280;7392;52.078;11.650;2022-12-26T04:43:47;100267.34;;;8.29;100.00
14612;BME280;7392;52.078;11.650;2022-12-26T04:46:38;100281.44;;;8.27;100.00
14612;BME280;7392;52.078;11.650;2022-12-26T04:49:07;100276.16;;;8.23;100.00
14612;BME280;7392;52.078;11.650;2022-12-26T04:51:54;100276.16;;;8.19;100.00
14612;BME280;7392;52.078;11.650;2022-12-26T04:54:22;100280.56;;;8.15;100.00
14612;BME280;7392;52.078;11.650;2022-12-26T04:56:50;100294.66;;;8.11;100.00
14612;BME280;7392;52.078;11.650;2022-12-26T04:59:18;100278.78;;;8.05;100.00
14612;BME280;7392;52.078;11.650;2022-12-26T05:01:47;100274.38;;;8.01;100.00
14612;BME280;7392;52.078;11.650;2022-12-26T05:04:33;100281.44;;;7.94;100.00
14612;BME280;7392;52.078;11.650;2022-12-26T05:07:20;100270.84;;;7.90;100.00
14612;BME280;7392;52.078;11.650;2022-12-26T05:10:09;100286.69;;;7.85;100.00
14612;BME280;7392;52.078;11.650;2022-12-26T05:12:38;100291.09;;;7.83;100.00
14612;BME280;7392;52.078;11.650;2022-12-26T05:15:07;100293.75;;;7.83;100.00
14612;BME280;7392;52.078;11.650;2022-12-26T05:17:36;100295.53;;;7.82;100.00
14612;BME280;7392;52.078;11.650;2022-12-26T05:20:21;100276.13;;;7.83;100.00
14612;BME280;7392;52.078;11.650;2022-12-26T05:23:13;100273.47;;;7.83;100.00
14612;BME280;7392;52.078;11.650;2022-12-26T05:25:59;100270.81;;;7.80;100.00
14612;BME280;7392;52.078;11.650;2022-12-26T05:28:47;100274.34;;;7.79;100.00
14612;BME280;7392;52.078;11.650;2022-12-26T05:31:16;100287.56;;;7.79;100.00
14612;BME280;7392;52.078;11.650;2022-12-26T05:33:45;100282.28;;;7.75;100.00
14612;BME280;7392;52.078;11.650;2022-12-26T05:36:33;100268.16;;;7.73;100.00
14612;BME280;7392;52.078;11.650;2022-12-26T05:39:02;100278.72;;;7.68;100.00
14612;BME280;7392;52.078;11.650;2022-12-26T05:41:30;100279.63;;;7.65;100.00
14612;BME280;7392;52.078;11.650;2022-12-26T05:43:58;100267.25;;;7.63;100.00
14612;BME280;7392;52.078;11.650;2022-12-26T05:46:25;100267.25;;;7.61;100.00
14612;BME280;7392;52.078;11.650;2022-12-26T05:48:55;100265.50;;;7.62;100.00
14612;BME280;7392;52.078;11.650;2022-12-26T05:51:22;100268.16;;;7.60;100.00
14612;BME280;7392;52.078;11.650;2022-12-26T05:53:50;100277.81;;;7.61;100.00
14612;BME280;7392;52.078;11.650;2022-12-26T05:56:19;100290.16;;;7.59;100.00
14612;BME280;7392;52.078;11.650;2022-12-26T05:58:47;100288.38;;;7.60;100.00
14612;BME280;7392;52.078;11.650;2022-12-26T06:01:19;100301.63;;;7.61;100.00
14612;BME280;7392;52.078;11.650;2022-12-26T06:03:49;100298.09;;;7.62;100.00
14612;BME280;7392;52.078;11.650;2022-12-26T06:06:20;100305.13;;;7.63;100.00
14612;BME280;7392;52.078;11.650;2022-12-26T06:08:51;100305.13;;;7.63;100.00
14612;BME280;7392;52.078;11.650;2022-12-26T06:11:20;100304.28;;;7.64;100.00
14612;BME280;7392;52.078;11.650;2022-12-26T06:13:48;100307.78;;;7.63;100.00
14612;BME280;7392;52.078;11.650;2022-12-26T06:16:17;100307.81;;;7.62;100.00
14612;BME280;7392;52.078;11.650;2022-12-26T06:18:45;100313.97;;;7.62;100.00
14612;BME280;7392;52.078;11.650;2022-12-26T06:21:15;100311.31;;;7.61;100.00
14612;BME280;7392;52.078;11.650;2022-12-26T06:23:44;100315.72;;;7.60;100.00
14612;BME280;7392;52.078;11.650;2022-12-26T06:26:12;100307.78;;;7.57;100.00
14612;BME280;7392;52.078;11.650;2022-12-26T06:28:41;100302.50;;;7.56;100.00
14612;BME280;7392;52.078;11.650;2022-12-26T06:31:12;100299.84;;;7.56;100.00
14612;BME280;7392;52.078;11.650;2022-12-26T06:33:41;100307.78;;;7.56;100.00
14612;BME280;7392;52.078;11.650;2022-12-26T06:36:11;100324.50;;;7.52;100.00
14612;BME280;7392;52.078;11.650;2022-12-26T06:38:40;100324.50;;;7.50;100.00
14612;BME280;7392;52.078;11.650;2022-12-26T06:41:11;100335.94;;;7.47;100.00
14612;BME280;7392;52.078;11.650;2022-12-26T06:43:39;100342.09;;;7.45;100.00
14612;BME280;7392;52.078;11.650;2022-12-26T06:46:09;100342.94;;;7.42;100.00
14612;BME280;7392;52.078;11.650;2022-12-26T06:48:38;100342.94;;;7.41;100.00
14612;BME280;7392;52.078;11.650;2022-12-26T06:51:08;100335.03;;;7.41;100.00
14612;BME280;7392;52.078;11.650;2022-12-26T06:53:36;100329.72;;;7.41;100.00
14612;BME280;7392;52.078;11.650;2022-12-26T06:56:06;100325.34;;;7.40;100.00
14612;BME280;7392;52.078;11.650;2022-12-26T06:58:35;100326.19;;;7.37;100.00
14612;BME280;7392;52.078;11.650;2022-12-26T07:01:04;100340.31;;;7.36;100.00
14612;BME280;7392;52.078;11.650;2022-12-26T07:03:32;100334.09;;;7.34;100.00
14612;BME280;7392;52.078;11.650;2022-12-26T07:06:04;100335.00;;;7.35;100.00
14612;BME280;7392;52.078;11.650;2022-12-26T07:08:32;100322.69;;;7.35;100.00
14612;BME280;7392;52.078;11.650;2022-12-26T07:11:00;100337.66;;;7.36;100.00
14612;BME280;7392;52.078;11.650;2022-12-26T07:13:28;100336.75;;;7.37;100.00
14612;BME280;7392;52.078;11.650;2022-12-26T07:15:59;100336.75;;;7.37;100.00
14612;BME280;7392;52.078;11.650;2022-12-26T07:18:26;100350.88;;;7.36;100.00
14612;BME280;7392;52.078;11.650;2022-12-26T07:20:54;100359.66;;;7.35;100.00
14612;BME280;7392;52.078;11.650;2022-12-26T07:23:21;100355.22;;;7.33;100.00
14612;BME280;7392;52.078;11.650;2022-12-26T07:25:49;100357.00;;;7.32;100.00
14612;BME280;7392;52.078;11.650;2022-12-26T07:28:17;100349.94;;;7.33;100.00
14612;BME280;7392;52.078;11.650;2022-12-26T07:30:45;100354.38;;;7.37;100.00
14612;BME280;7392;52.078;11.650;2022-12-26T07:33:15;100368.47;;;7.37;100.00
14612;BME280;7392;52.078;11.650;2022-12-26T07:35:43;100380.84;;;7.40;100.00
14612;BME280;7392;52.078;11.650;2022-12-26T07:38:11;100388.75;;;7.43;100.00
14612;BME280;7392;52.078;11.650;2022-12-26T07:40:39;100372.91;;;7.46;100.00
14612;BME280;7392;52.078;11.650;2022-12-26T07:43:06;100369.41;;;7.48;100.00
14612;BME280;7392;52.078;11.650;2022-12-26T07:45:34;100362.38;;;7.51;100.00
14612;BME280;7392;52.078;11.650;2022-12-26T07:48:10;100358.00;;;7.56;100.00
14612;BME280;7392;52.078;11.650;2022-12-26T07:50:39;100356.25;;;7.59;100.00
14612;BME280;7392;52.078;11.650;2022-12-26T07:53:07;100360.66;;;7.66;100.00
14612;BME280;7392;52.078;11.650;2022-12-26T07:55:34;100365.09;;;7.69;100.00
14612;BME280;7392;52.078;11.650;2022-12-26T07:58:02;100370.38;;;7.71;100.00
14612;BME280;7392;52.078;11.650;2022-12-26T08:00:29;100361.56;;;7.72;100.00
14612;BME280;7392;52.078;11.650;2022-12-26T08:02:57;100373.91;;;7.73;100.00
14612;BME280;7392;52.078;11.650;2022-12-26T08:05:32;100372.16;;;7.73;100.00
14612;BME280;7392;52.078;11.650;2022-12-26T08:08:02;100379.22;;;7.74;100.00
14612;BME280;7392;52.078;11.650;2022-12-26T08:10:29;100366.00;;;7.76;100.00
14612;BME280;7392;52.078;11.650;2022-12-26T08:12:57;100381.84;;;7.79;100.00
14612;BME280;7392;52.078;11.650;2022-12-26T08:15:24;100380.97;;;7.80;100.00
14612;BME280;7392;52.078;11.650;2022-12-26T08:17:52;100375.69;;;7.81;100.00
14612;BME280;7392;52.078;11.650;2022-12-26T08:20:19;100374.81;;;7.84;100.00
14612;BME280;7392;52.078;11.650;2022-12-26T08:22:47;100383.66;;;7.86;100.00
14612;BME280;7392;52.078;11.650;2022-12-26T08:25:16;100383.66;;;7.88;100.00
14612;BME280;7392;52.078;11.650;2022-12-26T08:27:47;100395.13;;;7.88;100.00
14612;BME280;7392;52.078;11.650;2022-12-26T08:30:15;100397.78;;;7.91;100.00
14612;BME280;7392;52.078;11.650;2022-12-26T08:32:44;100399.53;;;7.95;100.00
14612;BME280;7392;52.078;11.650;2022-12-26T08:35:12;100398.69;;;7.98;100.00
14612;BME280;7392;52.078;11.650;2022-12-26T08:37:39;100410.16;;;8.01;100.00
14612;BME280;7392;52.078;11.650;2022-12-26T08:40:08;100412.81;;;8.04;100.00
14612;BME280;7392;52.078;11.650;2022-12-26T08:42:39;100415.44;;;8.08;100.00
14612;BME280;7392;52.078;11.650;2022-12-26T08:45:27;100414.59;;;8.10;100.00
14612;BME280;7392;52.078;11.650;2022-12-26T08:47:54;100418.97;;;8.11;100.00
14612;BME280;7392;52.078;11.650;2022-12-26T08:50:23;100410.19;;;8.17;100.00
14612;BME280;7392;52.078;11.650;2022-12-26T08:52:50;100425.19;;;8.19;100.00
14612;BME280;7392;52.078;11.650;2022-12-26T08:55:18;100419.91;;;8.21;100.00
14612;BME280;7392;52.078;11.650;2022-12-26T08:57:47;100423.41;;;8.23;100.00
14612;BME280;7392;52.078;11.650;2022-12-26T09:00:15;100419.03;;;8.25;100.00
14612;BME280;7392;52.078;11.650;2022-12-26T09:02:43;100412.84;;;8.28;100.00
14612;BME280;7392;52.078;11.650;2022-12-26T09:05:11;100419.94;;;8.30;100.00
14612;BME280;7392;52.078;11.650;2022-12-26T09:07:38;100426.09;;;8.31;100.00
14612;BME280;7392;52.078;11.650;2022-12-26T09:10:09;100426.09;;;8.32;100.00
14612;BME280;7392;52.078;11.650;2022-12-26T09:12:36;100432.28;;;8.33;100.00
14612;BME280;7392;52.078;11.650;2022-12-26T09:15:06;100428.75;;;8.34;100.00
14612;BME280;7392;52.078;11.650;2022-12-26T09:17:34;100433.16;;;8.35;100.00
14612;BME280;7392;52.078;11.650;2022-12-26T09:20:01;100434.94;;;8.36;100.00
14612;BME280;7392;52.078;11.650;2022-12-26T09:22:29;100438.44;;;8.38;100.00
14612;BME280;7392;52.078;11.650;2022-12-26T09:25:14;100449.91;;;8.38;100.00
14612;BME280;7392;52.078;11.650;2022-12-26T09:27:42;100448.19;;;8.40;100.00
14612;BME280;7392;52.078;11.650;2022-12-26T09:30:12;100456.09;;;8.42;100.00
14612;BME280;7392;52.078;11.650;2022-12-26T09:32:40;100472.00;;;8.43;100.00
14612;BME280;7392;52.078;11.650;2022-12-26T09:35:08;100478.22;;;8.46;100.00
14612;BME280;7392;52.078;11.650;2022-12-26T09:37:35;100468.50;;;8.49;100.00
14612;BME280;7392;52.078;11.650;2022-12-26T09:40:04;100465.88;;;8.51;100.00
14612;BME280;7392;52.078;11.650;2022-12-26T09:42:39;100472.03;;;8.53;100.00
14612;BME280;7392;52.078;11.650;2022-12-26T09:45:14;100464.13;;;8.54;100.00
14612;BME280;7392;52.078;11.650;2022-12-26T09:47:50;100455.28;;;8.57;100.00
14612;BME280;7392;52.078;11.650;2022-12-26T09:50:25;100462.34;;;8.56;100.00
14612;BME280;7392;52.078;11.650;2022-12-26T09:52:56;100468.53;;;8.58;100.00
14612;BME280;7392;52.078;11.650;2022-12-26T09:55:31;100467.66;;;8.59;100.00
14612;BME280;7392;52.078;11.650;2022-12-26T09:58:07;100462.34;;;8.59;100.00
14612;BME280;7392;52.078;11.650;2022-12-26T10:00:43;100456.16;;;8.59;100.00
14612;BME280;7392;52.078;11.650;2022-12-26T10:03:12;100460.56;;;8.58;100.00
14612;BME280;7392;52.078;11.650;2022-12-26T10:05:47;100466.78;;;8.57;100.00
14612;BME280;7392;52.078;11.650;2022-12-26T10:08:24;100480.00;;;8.56;100.00
14612;BME280;7392;52.078;11.650;2022-12-26T10:10:58;100467.63;;;8.55;100.00
14612;BME280;7392;52.078;11.650;2022-12-26T10:13:32;100472.91;;;8.53;100.00
14612;BME280;7392;52.078;11.650;2022-12-26T10:16:07;100466.75;;;8.53;100.00
14612;BME280;7392;52.078;11.650;2022-12-26T10:18:48;100461.47;;;8.53;100.00
14612;BME280;7392;52.078;11.650;2022-12-26T10:21:30;100457.94;;;8.51;100.00
14612;BME280;7392;52.078;11.650;2022-12-26T10:24:05;100469.38;;;8.50;100.00
14612;BME280;7392;52.078;11.650;2022-12-26T10:26:37;100468.50;;;8.49;100.00
14612;BME280;7392;52.078;11.650;2022-12-26T10:29:11;100472.03;;;8.50;100.00
14612;BME280;7392;52.078;11.650;2022-12-26T10:31:45;100463.22;;;8.49;100.00
14612;BME280;7392;52.078;11.650;2022-12-26T10:34:17;100473.81;;;8.49;100.00
14612;BME280;7392;52.078;11.650;2022-12-26T10:36:48;100478.19;;;8.49;100.00
14612;BME280;7392;52.078;11.650;2022-12-26T10:39:21;100470.25;;;8.50;100.00
14612;BME280;7392;52.078;11.650;2022-12-26T10:41:52;100467.59;;;8.49;100.00
14612;BME280;7392;52.078;11.650;2022-12-26T10:44:21;100475.56;;;8.49;100.00
14612;BME280;7392;52.078;11.650;2022-12-26T10:47:06;100460.56;;;8.48;100.00
14612;BME280;7392;52.078;11.650;2022-12-26T10:49:37;100457.03;;;8.49;100.00
14612;BME280;7392;52.078;11.650;2022-12-26T10:52:04;100443.78;;;8.49;100.00
14612;BME280;7392;52.078;11.650;2022-12-26T10:54:32;100436.72;;;8.52;100.00
14612;BME280;7392;52.078;11.650;2022-12-26T10:57:00;100449.97;;;8.55;100.00
14612;BME280;7392;52.078;11.650;2022-12-26T10:59:39;100451.75;;;8.58;100.00
14612;BME280;7392;52.078;11.650;2022-12-26T11:02:26;100464.09;;;8.60;100.00
14612;BME280;7392;52.078;11.650;2022-12-26T11:05:04;100460.59;;;8.61;100.00
14612;BME280;7392;52.078;11.650;2022-12-26T11:07:54;100470.31;;;8.63;100.00
14612;BME280;7392;52.078;11.650;2022-12-26T11:10:25;100458.81;;;8.65;100.00
14612;BME280;7392;52.078;11.650;2022-12-26T11:12:55;100464.13;;;8.67;100.00
14612;BME280;7392;52.078;11.650;2022-12-26T11:15:31;100472.94;;;8.67;100.00
14612;BME280;7392;52.078;11.650;2022-12-26T11:18:15;100468.53;;;8.69;100.00
14612;BME280;7392;52.078;11.650;2022-12-26T11:20:45;100460.56;;;8.69;100.00
14612;BME280;7392;52.078;11.650;2022-12-26T11:23:24;100467.66;;;8.70;100.00
14612;BME280;7392;52.078;11.650;2022-12-26T11:25:54;100470.31;;;8.72;100.00
14612;BME280;7392;52.078;11.650;2022-12-26T11:28:30;100461.47;;;8.74;100.00
14612;BME280;7392;52.078;11.650;2022-12-26T11:30:59;100457.09;;;8.76;100.00
14612;BME280;7392;52.078;11.650;2022-12-26T11:33:31;100450.88;;;8.77;100.00
14612;BME280;7392;52.078;11.650;2022-12-26T11:36:05;100450.88;;;8.77;100.00
14612;BME280;7392;52.078;11.650;2022-12-26T11:38:44;100447.38;;;8.78;100.00
14612;BME280;7392;52.078;11.650;2022-12-26T11:41:16;100442.06;;;8.82;100.00
14612;BME280;7392;52.078;11.650;2022-12-26T11:44:11;100447.34;;;8.85;100.00
14612;BME280;7392;52.078;11.650;2022-12-26T11:46:40;100434.13;;;8.88;100.00
14612;BME280;7392;52.078;11.650;2022-12-26T11:49:17;100436.78;;;8.91;100.00
14612;BME280;7392;52.078;11.650;2022-12-26T11:51:48;100443.84;;;8.93;100.00
14612;BME280;7392;52.078;11.650;2022-12-26T11:54:34;100438.53;;;8.95;100.00
14612;BME280;7392;52.078;11.650;2022-12-26T11:57:17;100428.84;;;8.97;100.00
14612;BME280;7392;52.078;11.650;2022-12-26T11:59:46;100422.63;;;8.96;100.00
14612;BME280;7392;52.078;11.650;2022-12-26T12:02:27;100428.84;;;8.98;100.00
14612;BME280;7392;52.078;11.650;2022-12-26T12:05:11;100421.75;;;9.04;100.00
14612;BME280;7392;52.078;11.650;2022-12-26T12:10:47;100442.06;;;9.14;100.00
14612;BME280;7392;52.078;11.650;2022-12-26T12:13:23;100431.44;;;9.15;100.00
14612;BME280;7392;52.078;11.650;2022-12-26T12:15:56;100441.16;;;9.16;100.00
14612;BME280;7392;52.078;11.650;2022-12-26T12:18:38;100437.63;;;9.16;100.00
14612;BME280;7392;52.078;11.650;2022-12-26T12:21:14;100442.94;;;9.16;100.00
14612;BME280;7392;52.078;11.650;2022-12-26T12:24:05;100436.72;;;9.15;100.00
14612;BME280;7392;52.078;11.650;2022-12-26T12:26:41;100439.41;;;9.26;100.00
14612;BME280;7392;52.078;11.650;2022-12-26T12:29:34;100429.63;;;9.39;100.00
14612;BME280;7392;52.078;11.650;2022-12-26T12:32:08;100422.56;;;9.49;100.00
14612;BME280;7392;52.078;11.650;2022-12-26T12:35:02;100426.94;;;9.59;100.00
14612;BME280;7392;52.078;11.650;2022-12-26T12:37:44;100424.25;;;9.68;100.00
14612;BME280;7392;52.078;11.650;2022-12-26T12:40:23;100426.00;;;9.77;100.00
14612;BME280;7392;52.078;11.650;2022-12-26T12:43:03;100423.31;;;9.79;100.00
14612;BME280;7392;52.078;11.650;2022-12-26T12:45:42;100420.69;;;9.77;100.00
14612;BME280;7392;52.078;11.650;2022-12-26T12:48:33;100417.16;;;9.77;100.00
14612;BME280;7392;52.078;11.650;2022-12-26T12:51:12;100410.94;;;9.82;100.00
14612;BME280;7392;52.078;11.650;2022-12-26T12:54:15;100418.91;;;9.82;100.00
14612;BME280;7392;52.078;11.650;2022-12-26T12:56:52;100422.44;;;9.84;100.00
14612;BME280;7392;52.078;11.650;2022-12-26T12:59:33;100425.94;;;9.86;100.00
14612;BME280;7392;52.078;11.650;2022-12-26T13:02:18;100431.25;;;9.88;100.00
14612;BME280;7392;52.078;11.650;2022-12-26T13:04:51;100428.59;;;9.89;100.00
14612;BME280;7392;52.078;11.650;2022-12-26T13:07:28;100435.69;;;9.87;100.00
14612;BME280;7392;52.078;11.650;2022-12-26T13:10:01;100450.75;;;9.82;100.00
14612;BME280;7392;52.078;11.650;2022-12-26T13:12:31;100438.34;;;9.77;100.00
14612;BME280;7392;52.078;11.650;2022-12-26T13:15:06;100444.56;;;9.71;100.00
14612;BME280;7392;52.078;11.650;2022-12-26T13:17:37;100446.38;;;9.66;100.00
14612;BME280;7392;52.078;11.650;2022-12-26T13:20:14;100455.22;;;9.62;100.00
14612;BME280;7392;52.078;11.650;2022-12-26T13:22:45;100436.66;;;9.59;100.00
14612;BME280;7392;52.078;11.650;2022-12-26T13:25:35;100434.91;;;9.54;100.00
14612;BME280;7392;52.078;11.650;2022-12-26T13:28:10;100433.16;;;9.52;100.00
14612;BME280;7392;52.078;11.650;2022-12-26T13:30:42;100426.97;;;9.48;100.00
14612;BME280;7392;52.078;11.650;2022-12-26T13:33:13;100436.72;;;9.45;100.00
14612;BME280;7392;52.078;11.650;2022-12-26T13:35:51;100442.00;;;9.42;100.00